Time;durP1;ratioP1;P1;durP2;ratioP2;P2;SDS_P1;SDS_P2;PMS_P1;PMS_P2;Temp;Humidity;BMP_temperature;BMP_pressure;BME280_temperature;BME280_humidity;BME280_pressure;Samples;Min_cycle;Max_cycle;Signal;HPM_P1;HPM_P2
2024/01/24 00:02:07;;;;;;;;;0.00;0.00;;;;;16.19;100.00;102211.47;5055175;28;46220;-85
2024/01/24 00:04:33;;;;;;;;;0.00;0.00;;;;;16.20;100.00;102210.56;5055071;28;71035;-86
2024/01/24 00:06:58;;;;;;;;;0.00;0.00;;;;;16.21;100.00;102202.66;5055919;28;45302;-85
2024/01/24 00:09:23;;;;;;;;;0.50;0.50;;;;;16.23;100.00;102207.84;5039274;28;45614;-86
2024/01/24 00:11:49;;;;;;;;;0.00;0.00;;;;;16.11;100.00;102190.66;5055213;28;46180;-85
2024/01/24 00:14:14;;;;;;;;;0.00;0.00;;;;;16.14;100.00;102179.19;5055643;28;52596;-85
2024/01/24 00:16:40;;;;;;;;;0.00;0.00;;;;;16.18;100.00;102184.34;5056746;28;45444;-85
2024/01/24 00:19:05;;;;;;;;;0.00;0.00;;;;;16.19;100.00;102193.06;5055625;28;47095;-85
2024/01/24 00:21:30;;;;;;;;;0.00;0.00;;;;;16.19;100.00;102191.28;5054621;28;46695;-87
2024/01/24 00:23:56;;;;;;;;;0.00;0.00;;;;;16.12;100.00;102205.53;5053815;28;57550;-86
2024/01/24 00:26:21;;;;;;;;;0.00;0.00;;;;;16.08;100.00;102192.53;5055464;28;45924;-87
2024/01/24 00:28:46;;;;;;;;;0.00;0.00;;;;;16.26;100.00;102195.47;5055559;28;48077;-87
2024/01/24 00:31:12;;;;;;;;;0.00;0.00;;;;;16.21;100.00;102201.75;5055060;28;46713;-87
2024/01/24 00:33:37;;;;;;;;;0.00;0.00;;;;;16.18;100.00;102201.88;5054613;28;69928;-86
2024/01/24 00:36:03;;;;;;;;;0.00;0.00;;;;;16.19;100.00;102200.94;5056293;28;55172;-86
2024/01/24 00:38:28;;;;;;;;;0.00;0.00;;;;;16.24;100.00;102196.44;5038123;28;45614;-86
2024/01/24 00:40:53;;;;;;;;;0.00;0.00;;;;;16.21;100.00;102202.66;5054569;28;70122;-86
2024/01/24 00:43:21;;;;;;;;;0.00;0.00;;;;;16.21;100.00;102218.41;5057985;28;60731;-87
2024/01/24 00:45:47;;;;;;;;;0.00;0.00;;;;;16.12;100.00;102205.53;5076393;27;45516;-86
2024/01/24 00:48:14;;;;;;;;;0.00;0.00;;;;;16.15;100.00;102218.56;5074947;28;63524;-86
2024/01/24 00:50:40;;;;;;;;;0.00;0.00;;;;;16.13;100.00;102217.75;5036565;28;48339;-87
2024/01/24 00:53:06;;;;;;;;;0.00;0.00;;;;;16.23;100.00;102220.97;5035665;28;58999;-87
2024/01/24 00:55:31;;;;;;;;;0.00;0.00;;;;;16.14;100.00;102229.09;5035472;28;45291;-87
2024/01/24 00:57:58;;;;;;;;;0.00;0.00;;;;;16.18;100.00;102221.13;5040839;28;45470;-87
2024/01/24 01:00:24;;;;;;;;;0.00;0.00;;;;;16.21;100.00;102212.28;5071704;28;47301;-87
2024/01/24 01:02:49;;;;;;;;;0.00;0.00;;;;;16.08;100.00;102209.13;5038240;28;45616;-87
2024/01/24 01:05:14;;;;;;;;;0.00;0.00;;;;;16.09;100.00;102224.00;5054806;28;55643;-86
2024/01/24 01:07:40;;;;;;;;;0.00;0.00;;;;;16.03;100.00;102208.44;5054966;28;45445;-86
2024/01/24 01:10:08;;;;;;;;;0.00;0.00;;;;;16.01;100.00;102215.47;5038460;28;50086;-87
2024/01/24 01:12:36;;;;;;;;;0.00;0.00;;;;;15.98;100.00;102234.81;5054862;28;45776;-86
2024/01/24 01:15:02;;;;;;;;;0.00;0.00;;;;;16.00;100.00;102224.25;5057441;28;45360;-87
2024/01/24 01:17:27;;;;;;;;;0.00;0.00;;;;;15.91;100.00;102216.63;5080343;27;45419;-86
2024/01/24 01:19:53;;;;;;;;;0.00;0.00;;;;;15.90;100.00;102213.16;5095711;27;46477;-86
2024/01/24 01:22:19;;;;;;;;;0.00;0.00;;;;;15.71;100.00;102209.25;5078647;27;45669;-87
2024/01/24 01:24:47;;;;;;;;;0.00;0.00;;;;;15.80;100.00;102203.81;5094872;27;45425;-86
2024/01/24 01:27:12;;;;;;;;;0.00;0.00;;;;;15.68;100.00;102186.59;5096604;27;45313;-86
2024/01/24 01:29:38;;;;;;;;;0.00;0.00;;;;;15.61;100.00;102190.28;5095107;27;46286;-86
2024/01/24 01:32:05;;;;;;;;;0.00;0.00;;;;;15.60;100.00;102175.44;5078495;27;45428;-86
2024/01/24 01:34:30;;;;;;;;;0.00;0.00;;;;;15.58;100.00;102179.88;5095617;27;45357;-87
2024/01/24 01:36:55;;;;;;;;;0.00;0.00;;;;;15.58;100.00;102175.50;5094997;27;61768;-87
2024/01/24 01:39:24;;;;;;;;;0.00;0.00;;;;;15.55;100.00;102172.94;5068160;27;74385;-87
2024/01/24 01:41:49;;;;;;;;;0.00;0.00;;;;;15.58;100.00;102183.38;5099672;27;45442;-87
2024/01/24 01:44:17;;;;;;;;;0.00;0.00;;;;;15.56;100.00;102182.53;5101367;27;45263;-88
2024/01/24 01:46:45;;;;;;;;;0.00;0.00;;;;;15.56;100.00;102194.78;5085725;27;45613;-87
2024/01/24 01:49:10;;;;;;;;;0.00;0.00;;;;;15.61;100.00;102217.38;5094182;27;46085;-87
2024/01/24 01:51:36;;;;;;;;;0.00;0.00;;;;;15.55;100.00;102211.47;5085900;28;45424;-87
2024/01/24 01:54:02;;;;;;;;;0.00;0.00;;;;;15.52;100.00;102211.53;5084563;28;45404;-87
2024/01/24 01:56:28;;;;;;;;;0.00;0.00;;;;;15.64;100.00;102203.34;5086096;28;45531;-87
2024/01/24 01:58:53;;;;;;;;;0.00;0.00;;;;;15.61;100.00;102200.78;5097958;27;47041;-86
2024/01/24 02:01:19;;;;;;;;;0.00;0.00;;;;;15.59;100.00;102223.59;5098629;27;45364;-87
2024/01/24 02:03:45;;;;;;;;;0.00;0.00;;;;;15.59;100.00;102213.94;5081473;27;45414;-87
2024/01/24 02:06:11;;;;;;;;;0.00;0.00;;;;;15.59;100.00;102208.69;5099661;27;45530;-87
2024/01/24 02:08:36;;;;;;;;;0.00;0.00;;;;;15.53;100.00;102216.75;5098387;27;45427;-86
2024/01/24 02:11:03;;;;;;;;;0.00;0.00;;;;;15.71;100.00;102193.53;5098277;27;45371;-87
2024/01/24 02:13:31;;;;;;;;;0.00;0.00;;;;;15.79;100.00;102199.47;5071128;27;45296;-87
2024/01/24 02:16:00;;;;;;;;;0.00;0.00;;;;;15.64;100.00;102201.56;5098717;27;45308;-86
2024/01/24 02:18:37;;;;;;;;;0.00;0.00;;;;;15.61;100.00;102192.91;5095123;27;47322;-88
2024/01/24 02:21:02;;;;;;;;;0.00;0.00;;;;;15.65;100.00;102187.53;5081394;27;45828;-86
2024/01/24 02:23:30;;;;;;;;;0.00;0.00;;;;;15.59;100.00;102182.44;5098694;27;45349;-87
2024/01/24 02:25:57;;;;;;;;;0.00;0.00;;;;;15.61;100.00;102190.28;5079413;27;45332;-87
2024/01/24 02:28:26;;;;;;;;;0.00;0.00;;;;;15.68;100.00;102218.94;5080503;27;47972;-86
2024/01/24 02:30:54;;;;;;;;;0.00;0.00;;;;;15.76;100.00;102210.91;5098434;27;45429;-87
2024/01/24 02:33:21;;;;;;;;;0.00;0.00;;;;;15.73;100.00;102204.84;5081413;27;45364;-86
2024/01/24 02:35:50;;;;;;;;;0.00;0.00;;;;;15.81;100.00;102213.41;5081372;27;45207;-87
2024/01/24 02:38:15;;;;;;;;;0.00;0.00;;;;;15.84;100.00;102202.81;5097938;27;47331;-86
2024/01/24 02:40:41;;;;;;;;;0.00;0.00;;;;;15.82;100.00;102208.13;5097930;27;45401;-86
2024/01/24 02:43:06;;;;;;;;;0.00;0.00;;;;;15.82;100.00;102213.38;5078920;27;45366;-86
2024/01/24 02:45:34;;;;;;;;;0.00;0.00;;;;;15.76;100.00;102207.41;5097595;27;45338;-86
2024/01/24 02:48:00;;;;;;;;;0.00;0.00;;;;;15.97;100.00;102204.22;5097811;27;45453;-86
2024/01/24 02:50:25;;;;;;;;;0.00;0.00;;;;;15.92;100.00;102192.97;5063065;28;45448;-87
2024/01/24 02:52:54;;;;;;;;;0.00;0.00;;;;;15.96;100.00;102205.09;5077676;28;45227;-86
2024/01/24 02:55:20;;;;;;;;;0.00;0.00;;;;;15.90;100.00;102188.66;5060032;28;56747;-87
2024/01/24 02:57:45;;;;;;;;;0.00;0.00;;;;;16.16;100.00;102199.28;5081782;27;46062;-86
2024/01/24 03:00:12;;;;;;;;;0.00;0.00;;;;;16.09;100.00;102194.25;5080196;27;46342;-86
2024/01/24 03:02:38;;;;;;;;;0.00;0.00;;;;;16.00;100.00;102201.47;5097609;27;45508;-87
2024/01/24 03:05:08;;;;;;;;;0.00;0.00;;;;;15.97;100.00;102198.06;5097515;27;45501;-86
2024/01/24 03:07:40;;;;;;;;;0.00;0.00;;;;;15.96;100.00;102199.00;5098872;27;47072;-87
2024/01/24 03:10:08;;;;;;;;;0.00;0.00;;;;;15.98;100.00;102199.81;5098545;27;45387;-87
2024/01/24 03:12:33;;;;;;;;;0.00;0.00;;;;;15.98;100.00;102207.69;5093952;27;45221;-87
2024/01/24 03:15:01;;;;;;;;;0.00;0.00;;;;;16.02;100.00;102191.78;5055445;28;45565;-86
2024/01/24 03:17:29;;;;;;;;;0.00;0.00;;;;;15.99;100.00;102202.41;5062786;28;47175;-87
2024/01/24 03:19:55;;;;;;;;;0.00;0.00;;;;;15.98;100.00;102208.53;5060048;28;46164;-86
2024/01/24 03:22:20;;;;;;;;;0.00;0.00;;;;;16.06;100.00;102208.31;5059957;28;45317;-87
2024/01/24 03:24:48;;;;;;;;;0.00;0.00;;;;;16.05;100.00;102223.22;5060070;28;45494;-86
2024/01/24 03:27:14;;;;;;;;;0.00;0.00;;;;;16.13;100.00;102223.00;5078226;27;70687;-87
2024/01/24 03:29:41;;;;;;;;;0.00;0.00;;;;;16.12;100.00;102229.19;5083101;27;45820;-87
2024/01/24 03:32:06;;;;;;;;;0.00;0.00;;;;;16.19;100.00;102225.44;5100830;27;45298;-87
2024/01/24 03:34:32;;;;;;;;;0.00;0.00;;;;;16.20;100.00;102221.94;5083321;27;45390;-86
2024/01/24 03:36:57;;;;;;;;;0.00;0.00;;;;;16.14;100.00;102203.72;5100295;27;48269;-87
2024/01/24 03:39:22;;;;;;;;;0.00;0.00;;;;;16.17;100.00;102214.13;5080736;27;45626;-86
2024/01/24 03:41:51;;;;;;;;;0.00;0.00;;;;;16.21;100.00;102210.53;5078204;27;45669;-87
2024/01/24 03:44:31;;;;;;;;;0.00;0.00;;;;;16.15;100.00;102200.19;5082282;27;45448;-88
2024/01/24 03:46:56;;;;;;;;;0.00;0.00;;;;;16.05;100.00;102207.47;5056390;27;48287;-86
2024/01/24 03:49:22;;;;;;;;;0.00;0.00;;;;;16.17;100.00;102213.28;5078916;27;45388;-86
2024/01/24 03:51:50;;;;;;;;;0.00;0.00;;;;;16.11;100.00;102216.09;5062272;27;56526;-87
2024/01/24 03:54:19;;;;;;;;;0.00;0.00;;;;;16.02;100.00;102209.31;5078921;27;61281;-88
2024/01/24 03:56:54;;;;;;;;;0.00;0.00;;;;;16.13;100.00;102203.75;5062572;27;48037;-87
2024/01/24 03:59:19;;;;;;;;;0.00;0.00;;;;;16.02;100.00;102197.03;5080076;27;45330;-86
2024/01/24 04:01:48;;;;;;;;;0.00;0.00;;;;;16.10;100.00;102194.19;5089759;27;50870;-86
2024/01/24 04:04:15;;;;;;;;;0.00;0.00;;;;;16.09;100.00;102191.63;5118316;27;45383;-87
2024/01/24 04:06:49;;;;;;;;;0.00;0.00;;;;;16.10;100.00;102186.31;5100095;27;46342;-86
2024/01/24 04:09:15;;;;;;;;;0.00;0.00;;;;;16.10;100.00;102193.34;5082457;27;46146;-87
2024/01/24 04:11:41;;;;;;;;;0.00;0.00;;;;;16.10;100.00;102173.16;5099289;27;48406;-86
2024/01/24 04:14:07;;;;;;;;;0.00;0.00;;;;;16.15;100.00;102188.81;5081803;27;45344;-87
2024/01/24 04:16:33;;;;;;;;;0.00;0.00;;;;;16.21;100.00;102189.50;5082445;27;46186;-87
2024/01/24 04:18:58;;;;;;;;;0.00;0.00;;;;;16.14;100.00;102195.84;5099396;27;45496;-86
2024/01/24 04:21:23;;;;;;;;;0.00;0.00;;;;;16.17;100.00;102202.75;5099683;27;45479;-86
2024/01/24 04:23:49;;;;;;;;;0.00;0.00;;;;;16.22;100.00;102211.38;5099046;27;45430;-86
2024/01/24 04:26:17;;;;;;;;;0.00;0.00;;;;;16.14;100.00;102219.50;5117659;27;45464;-86
2024/01/24 04:28:43;;;;;;;;;0.00;0.00;;;;;16.23;100.00;102215.72;5080786;27;45397;-86
2024/01/24 04:31:08;;;;;;;;;0.00;0.00;;;;;16.21;100.00;102222.78;5082377;27;49790;-87
2024/01/24 04:33:34;;;;;;;;;0.00;0.00;;;;;16.21;100.00;102217.53;5099241;27;45282;-87
2024/01/24 04:36:00;;;;;;;;;0.00;0.00;;;;;16.29;100.00;102235.69;5066544;27;47107;-87
2024/01/24 04:38:25;;;;;;;;;0.00;0.00;;;;;16.26;100.00;102242.75;5078756;27;45287;-86
2024/01/24 04:40:51;;;;;;;;;0.00;0.00;;;;;16.29;100.00;102259.34;5079128;27;45433;-87
2024/01/24 04:43:16;;;;;;;;;0.00;0.00;;;;;16.35;100.00;102257.41;5082317;27;45454;-88
2024/01/24 04:45:42;;;;;;;;;0.00;0.00;;;;;16.35;100.00;102256.56;5082144;27;47798;-87
2024/01/24 04:48:13;;;;;;;;;0.00;0.00;;;;;16.35;100.00;102264.44;5081114;27;69633;-87
2024/01/24 04:50:38;;;;;;;;;0.00;0.00;;;;;16.36;100.00;102264.41;5078592;27;61723;-87
2024/01/24 04:53:04;;;;;;;;;0.00;0.00;;;;;16.38;100.00;102280.97;5061386;27;45445;-86
2024/01/24 04:55:29;;;;;;;;;0.00;0.00;;;;;16.38;100.00;102283.59;5096824;27;47233;-87
2024/01/24 04:57:55;;;;;;;;;0.00;0.00;;;;;16.38;100.00;102291.50;5077578;27;70831;-87
2024/01/24 05:00:20;;;;;;;;;0.00;0.00;;;;;16.36;100.00;102284.53;5077954;27;63470;-86
2024/01/24 05:02:47;;;;;;;;;0.00;0.00;;;;;16.35;100.00;102285.47;5112812;27;45581;-87
2024/01/24 05:05:12;;;;;;;;;0.00;0.00;;;;;16.37;100.00;102287.13;5099151;27;47360;-87
2024/01/24 05:07:38;;;;;;;;;0.00;0.00;;;;;16.33;100.00;102287.28;5098362;27;51576;-86
2024/01/24 05:10:04;;;;;;;;;0.00;0.00;;;;;16.31;100.00;102289.09;5099311;27;45331;-86
2024/01/24 05:12:31;;;;;;;;;0.00;0.00;;;;;16.30;100.00;102308.38;5095091;27;45539;-87
2024/01/24 05:14:56;;;;;;;;;0.00;0.00;;;;;16.33;100.00;102303.91;5061358;27;47217;-87
2024/01/24 05:17:29;;;;;;;;;0.00;0.00;;;;;16.29;100.00;102309.25;5078614;27;45502;-87
2024/01/24 05:19:55;;;;;;;;;0.00;0.00;;;;;16.30;100.00;102295.22;5075006;27;45422;-88
2024/01/24 05:22:22;;;;;;;;;0.00;0.00;;;;;16.28;100.00;102313.66;5081428;27;45357;-87
2024/01/24 05:24:47;;;;;;;;;0.00;0.00;;;;;16.31;100.00;102302.22;5084229;27;47725;-87
2024/01/24 05:27:13;;;;;;;;;0.00;0.00;;;;;16.25;100.00;102301.47;5120554;27;54127;-86
2024/01/24 05:29:39;;;;;;;;;0.00;0.00;;;;;16.29;100.00;102318.03;5103730;27;56217;-87
2024/01/24 05:32:05;;;;;;;;;0.00;0.00;;;;;16.33;100.00;102319.66;5103436;27;45499;-88
2024/01/24 05:34:33;;;;;;;;;0.00;0.00;;;;;16.35;100.00;102333.63;5117685;27;46230;-87
2024/01/24 05:36:59;;;;;;;;;0.00;0.00;;;;;16.37;100.00;102347.56;5100047;27;45386;-87
2024/01/24 05:39:24;;;;;;;;;0.00;0.00;;;;;16.39;100.00;102366.78;5081855;27;45352;-86
2024/01/24 05:41:50;;;;;;;;;0.00;0.00;;;;;16.30;100.00;102381.94;5064038;27;64543;-86
2024/01/24 05:44:15;;;;;;;;;0.00;0.00;;;;;16.26;100.00;102382.00;5071077;27;48093;-86
2024/01/24 05:46:41;;;;;;;;;0.00;0.00;;;;;16.30;100.00;102398.56;5120319;27;45303;-87
2024/01/24 05:49:06;;;;;;;;;0.00;0.00;;;;;16.15;100.00;102381.44;5094413;27;60869;-86
2024/01/24 05:51:31;;;;;;;;;0.00;0.00;;;;;16.03;100.00;102390.50;5043395;28;64315;-87
2024/01/24 05:53:59;;;;;;;;;0.00;0.00;;;;;15.95;100.00;102397.69;5044008;28;70055;-86
2024/01/24 05:56:24;;;;;;;;;0.00;0.00;;;;;15.86;100.00;102396.19;5079192;28;45298;-85
2024/01/24 05:58:49;;;;;;;;;0.00;0.00;;;;;15.76;100.00;102413.06;5043523;28;61886;-85
2024/01/24 06:01:15;;;;;;;;;0.00;0.00;;;;;15.68;100.00;102412.34;5072474;27;45448;-85
2024/01/24 06:03:41;;;;;;;;;0.00;0.00;;;;;15.63;100.00;102396.69;5119035;27;66261;-84
2024/01/24 06:06:06;;;;;;;;;0.00;0.00;;;;;15.63;100.00;102403.72;5084068;27;45570;-84
2024/01/24 06:08:31;;;;;;;;;0.00;0.00;;;;;15.54;100.00;102401.31;5083560;27;69597;-84
2024/01/24 06:10:57;;;;;;;;;0.00;0.00;;;;;15.48;100.00;102424.16;5119044;27;71533;-84
2024/01/24 06:13:22;;;;;;;;;0.00;0.00;;;;;15.46;100.00;102406.72;5090071;27;48176;-84
2024/01/24 06:15:50;;;;;;;;;0.00;0.00;;;;;15.47;100.00;102416.31;5099321;27;45299;-85
2024/01/24 06:18:15;;;;;;;;;0.00;0.00;;;;;15.44;100.00;102430.38;5116564;27;45396;-85
2024/01/24 06:20:41;;;;;;;;;0.00;0.00;;;;;15.39;100.00;102423.50;5083050;27;70911;-85
2024/01/24 06:23:06;;;;;;;;;0.00;0.00;;;;;15.35;100.00;102438.47;5084233;27;47032;-85
2024/01/24 06:25:31;;;;;;;;;0.00;0.00;;;;;15.28;100.00;102427.25;5100465;27;71917;-85
2024/01/24 06:27:57;;;;;;;;;0.00;0.00;;;;;15.23;100.00;102436.97;5083388;27;69060;-85
2024/01/24 06:30:22;;;;;;;;;0.00;0.00;;;;;15.21;100.00;102438.75;5098673;27;65395;-86
2024/01/24 06:32:47;;;;;;;;;0.00;0.00;;;;;15.15;100.00;102431.00;5098840;27;63214;-85
2024/01/24 06:35:13;;;;;;;;;0.00;0.00;;;;;15.05;100.00;102446.06;5099881;27;45436;-84
2024/01/24 06:37:38;;;;;;;;;0.00;0.00;;;;;14.88;100.00;102440.31;5101473;27;45627;-85
2024/01/24 06:40:09;;;;;;;;;0.00;0.00;;;;;14.79;100.00;102430.88;5100029;27;45678;-88
2024/01/24 06:42:34;;;;;;;;;0.00;0.00;;;;;14.76;100.00;102445.78;5119266;27;46544;-85
2024/01/24 06:45:00;;;;;;;;;0.00;0.00;;;;;14.73;100.00;102436.25;5084090;27;45407;-86
2024/01/24 06:47:25;;;;;;;;;0.00;0.00;;;;;14.72;100.00;102447.59;5118868;27;59432;-86
2024/01/24 06:49:51;;;;;;;;;0.00;0.00;;;;;14.73;100.00;102448.47;5087614;27;53644;-85
2024/01/24 06:52:16;;;;;;;;;0.00;0.00;;;;;14.72;100.00;102463.34;5080594;27;45994;-85
2024/01/24 06:54:41;;;;;;;;;0.00;0.00;;;;;14.64;100.00;102460.00;5079483;27;72748;-87
2024/01/24 06:57:09;;;;;;;;;0.00;0.00;;;;;14.72;100.00;102463.34;5080432;27;59180;-87
2024/01/24 06:59:35;;;;;;;;;0.00;0.00;;;;;14.76;100.00;102469.38;5064822;28;45539;-86
2024/01/24 07:02:00;;;;;;;;;0.00;0.00;;;;;14.53;100.00;102463.63;5043103;28;47061;-86
2024/01/24 07:04:25;;;;;;;;;0.00;0.00;;;;;14.49;100.00;102471.59;5077727;28;45295;-85
2024/01/24 07:06:51;;;;;;;;;0.00;0.00;;;;;14.32;100.00;102477.97;5060045;28;45331;-85
2024/01/24 07:09:17;;;;;;;;;0.00;0.00;;;;;14.31;100.00;102485.88;5077566;28;54682;-85
2024/01/24 07:11:42;;;;;;;;;0.00;0.00;;;;;14.35;100.00;102487.53;5059887;28;47310;-85
2024/01/24 07:14:07;;;;;;;;;0.00;0.00;;;;;14.31;100.00;102481.47;5092445;27;51968;-83
2024/01/24 07:16:33;;;;;;;;;0.00;0.00;;;;;14.29;100.00;102490.28;5119172;27;45288;-83
2024/01/24 07:18:58;;;;;;;;;0.00;0.00;;;;;14.34;100.00;102491.06;5117479;27;70816;-84
2024/01/24 07:21:26;;;;;;;;;0.00;0.00;;;;;14.29;100.00;102491.13;5075795;27;77705;-91
2024/01/24 07:23:51;;;;;;;;;0.00;0.00;;;;;14.23;100.00;102482.53;5065638;28;45342;-83
2024/01/24 07:26:17;;;;;;;;;0.00;0.00;;;;;14.19;100.00;102493.91;5076700;28;69102;-83
2024/01/24 07:28:42;;;;;;;;;0.00;0.00;;;;;14.13;100.00;102495.75;5092633;27;68350;-83
2024/01/24 07:31:07;;;;;;;;;0.00;0.00;;;;;14.09;100.00;102477.50;5104690;27;72534;-83
2024/01/24 07:33:33;;;;;;;;;0.00;0.00;;;;;14.07;100.00;102472.28;5117224;27;49585;-82
2024/01/24 07:35:58;;;;;;;;;0.00;0.00;;;;;14.09;100.00;102483.59;5077799;27;69014;-82
2024/01/24 07:38:23;;;;;;;;;0.00;0.00;;;;;14.06;100.00;102474.91;5096814;27;64152;-82
2024/01/24 07:40:48;;;;;;;;;0.00;0.00;;;;;14.00;100.00;102478.50;5096623;27;75274;-82
2024/01/24 07:43:15;;;;;;;;;0.00;0.00;;;;;13.99;100.00;102489.00;5078231;27;75144;-82
2024/01/24 07:45:40;;;;;;;;;0.00;0.00;;;;;14.01;100.00;102488.09;5079371;27;45365;-82
2024/01/24 07:48:07;;;;;;;;;0.00;0.00;;;;;14.01;100.00;102502.94;5092073;27;69410;-83
2024/01/24 07:50:33;;;;;;;;;0.00;0.00;;;;;13.96;100.00;102510.84;5096575;27;46265;-83
2024/01/24 07:52:58;;;;;;;;;0.00;0.00;;;;;13.99;100.00;102516.03;5078713;27;45607;-83
2024/01/24 07:55:23;;;;;;;;;0.00;0.00;;;;;13.98;100.00;102518.69;5078353;27;68985;-82
2024/01/24 07:57:48;;;;;;;;;0.00;0.00;;;;;13.94;100.00;102544.91;5079288;27;45488;-81
2024/01/24 08:00:16;;;;;;;;;0.00;0.00;;;;;13.89;100.00;102549.34;5097716;27;75966;-82
2024/01/24 08:02:43;;;;;;;;;0.00;0.00;;;;;13.95;100.00;102548.41;5097985;27;45420;-83
2024/01/24 08:05:08;;;;;;;;;0.00;0.00;;;;;13.93;100.00;102544.94;5098724;27;45480;-83
2024/01/24 08:07:36;;;;;;;;;0.00;0.00;;;;;13.93;100.00;102555.41;5112183;27;68340;-81
2024/01/24 08:10:02;;;;;;;;;0.00;0.00;;;;;13.91;100.00;102551.94;5078463;27;46217;-80
2024/01/24 08:12:27;;;;;;;;;0.00;0.00;;;;;13.85;100.00;102552.03;5094670;27;46454;-82
2024/01/24 08:14:53;;;;;;;;;0.00;0.00;;;;;13.87;100.00;102550.25;5076735;27;59732;-82
2024/01/24 08:17:18;;;;;;;;;0.00;0.00;;;;;13.91;100.00;102546.69;5097692;27;45384;-81
2024/01/24 08:19:44;;;;;;;;;0.00;0.00;;;;;13.89;100.00;102548.47;5065869;28;77599;-82
2024/01/24 08:22:10;;;;;;;;;0.00;0.00;;;;;13.88;100.00;102557.22;5077170;27;45436;-82
2024/01/24 08:24:45;;;;;;;;;0.00;0.00;;;;;13.87;100.00;102560.72;5075102;27;45571;-82
2024/01/24 08:27:11;;;;;;;;;0.00;0.00;;;;;13.89;100.00;102579.88;5078361;27;45626;-82
2024/01/24 08:29:36;;;;;;;;;0.00;0.00;;;;;13.87;100.00;102581.66;5094127;27;75385;-81
2024/01/24 08:32:04;;;;;;;;;0.00;0.00;;;;;13.93;100.00;102558.91;5082353;27;73100;-79
2024/01/24 08:34:30;;;;;;;;;0.00;0.00;;;;;13.91;100.00;102592.09;5096065;27;45413;-81
2024/01/24 08:36:55;;;;;;;;;0.00;0.00;;;;;13.90;100.00;102595.56;5075407;27;45374;-82
2024/01/24 08:39:20;;;;;;;;;0.00;0.00;;;;;13.93;100.00;102592.06;5056503;28;74318;-82
2024/01/24 08:41:46;;;;;;;;;0.00;0.00;;;;;13.94;100.00;102607.72;5074590;28;45251;-83
2024/01/24 08:44:11;;;;;;;;;0.00;0.00;;;;;13.99;100.00;102598.97;5084698;27;45371;-83
2024/01/24 08:46:36;;;;;;;;;0.00;0.00;;;;;14.02;100.00;102602.41;5098403;27;68694;-83
2024/01/24 08:49:02;;;;;;;;;0.00;0.00;;;;;14.04;100.00;102612.84;5077038;27;75406;-84
2024/01/24 08:51:31;;;;;;;;;0.00;0.00;;;;;14.04;100.00;102605.88;5092819;27;45290;-83
2024/01/24 08:53:57;;;;;;;;;0.00;0.00;;;;;14.05;100.00;102598.88;5088006;27;45478;-83
2024/01/24 08:56:23;;;;;;;;;0.00;0.00;;;;;14.07;100.00;102597.09;5059937;27;45386;-83
2024/01/24 08:58:48;;;;;;;;;0.00;0.00;;;;;13.99;100.00;102597.22;5057741;27;66879;-84
2024/01/24 09:01:14;;;;;;;;;0.00;0.00;;;;;13.98;100.00;102598.09;5074059;27;47435;-84
2024/01/24 09:03:39;;;;;;;;;0.00;0.00;;;;;14.00;100.00;102626.88;5078333;27;45539;-84
2024/01/24 09:06:05;;;;;;;;;0.00;0.00;;;;;14.05;100.00;102614.59;5072786;27;45716;-85
2024/01/24 09:08:30;;;;;;;;;0.00;0.00;;;;;13.99;100.00;102623.38;5077808;27;46373;-85
2024/01/24 09:10:56;;;;;;;;;0.00;0.00;;;;;14.05;100.00;102630.31;5078227;27;45900;-85
2024/01/24 09:13:22;;;;;;;;;0.00;0.00;;;;;13.97;100.00;102634.75;5059849;27;64832;-85
2024/01/24 09:15:48;;;;;;;;;0.00;0.00;;;;;14.05;100.00;102649.50;5076734;27;45379;-88
2024/01/24 09:18:26;;;;;;;;;0.00;0.00;;;;;14.15;100.00;102660.69;5060203;27;66583;-87
2024/01/24 09:20:55;;;;;;;;;0.00;0.00;;;;;14.11;100.00;102674.72;5076535;28;45512;-88
2024/01/24 09:23:21;;;;;;;;;0.00;0.00;;;;;14.19;100.00;102669.38;5077888;27;45409;-89
2024/01/24 09:25:47;;;;;;;;;0.00;0.00;;;;;14.17;100.00;102679.91;5078539;27;45357;-87
2024/01/24 09:28:12;;;;;;;;;0.00;0.00;;;;;14.09;100.00;102682.59;5077803;27;52428;-88
2024/01/24 09:30:45;;;;;;;;;0.00;0.00;;;;;14.16;100.00;102698.25;5079097;27;45285;-89
2024/01/24 09:33:10;;;;;;;;;0.00;0.00;;;;;14.24;100.00;102692.00;5076743;28;45323;-88
2024/01/24 09:35:40;;;;;;;;;0.00;0.00;;;;;14.28;100.00;102684.97;5067277;28;45508;-90
2024/01/24 09:38:16;;;;;;;;;0.00;0.00;;;;;14.23;100.00;102681.56;5074805;28;47996;-90
2024/01/24 09:41:10;;;;;;;;;0.00;0.00;;;;;14.32;100.00;102694.56;5058700;28;45303;-89
2024/01/24 09:43:41;;;;;;;;;0.00;0.00;;;;;14.30;100.00;102689.34;5072284;27;45374;-87
2024/01/24 09:46:16;;;;;;;;;0.00;0.00;;;;;14.40;100.00;102700.53;5078661;27;45350;-88
2024/01/24 09:48:46;;;;;;;;;1.00;1.00;;;;;14.45;100.00;102703.09;5096766;27;45573;-87
2024/01/24 09:51:13;;;;;;;;;0.00;0.00;;;;;14.45;100.00;102713.56;5081356;27;45426;-87
2024/01/24 09:53:39;;;;;;;;;0.00;0.00;;;;;14.53;100.00;102704.72;5095950;27;45337;-89
2024/01/24 09:56:04;;;;;;;;;0.00;0.00;;;;;14.62;100.00;102711.63;5057575;27;45876;-86
2024/01/24 09:58:30;;;;;;;;;0.00;0.00;;;;;14.59;100.00;102702.94;5060280;27;46917;-87
2024/01/24 10:00:56;;;;;;;;;0.00;0.00;;;;;14.64;100.00;102701.97;5096334;27;45330;-89
2024/01/24 10:03:31;;;;;;;;;0.00;0.00;;;;;14.76;100.00;102723.66;5078524;27;45263;-89
2024/01/24 10:06:04;;;;;;;;;0.00;0.00;;;;;14.67;100.00;102727.28;5110586;27;45340;-91
2024/01/24 10:08:32;;;;;;;;;0.00;0.00;;;;;14.75;100.00;102711.47;5058702;27;47673;-89
2024/01/24 10:10:57;;;;;;;;;0.00;0.00;;;;;14.75;100.00;102725.41;5061837;27;50338;-89
2024/01/24 10:13:28;;;;;;;;;0.00;0.00;;;;;14.79;100.00;102732.34;5082140;27;45326;-89
2024/01/24 10:15:53;;;;;;;;;0.00;0.00;;;;;14.83;100.00;102725.31;5065095;27;45398;-88
2024/01/24 10:18:19;;;;;;;;;0.00;0.00;;;;;14.95;100.00;102750.47;5081865;27;45396;-91
2024/01/24 10:20:54;;;;;;;;;0.00;0.00;;;;;15.01;100.00;102743.38;5100415;27;45608;-92
2024/01/24 10:23:21;;;;;;;;;0.00;0.00;;;;;15.10;100.00;102750.25;5081346;27;45537;-90
2024/01/24 10:26:02;;;;;;;;;0.00;0.00;;;;;15.10;100.00;102768.59;5082306;27;45235;-92
2024/01/24 10:28:52;;;;;;;;;0.00;0.00;;;;;15.18;100.00;102739.63;5098733;27;47124;-91
2024/01/24 10:31:38;;;;;;;;;0.00;0.00;;;;;15.26;100.00;102762.19;5085726;27;45349;-90
2024/01/24 10:34:09;;;;;;;;;0.00;0.00;;;;;15.32;100.00;102729.75;5099809;27;45278;-90
2024/01/24 10:36:38;;;;;;;;;0.00;0.00;;;;;15.37;100.00;102763.78;5094899;27;45282;-91
2024/01/24 10:39:22;;;;;;;;;0.00;0.00;;;;;15.47;100.00;102771.50;5079526;27;45468;-89
2024/01/24 10:41:48;;;;;;;;;0.00;0.00;;;;;15.54;100.00;102766.97;5064901;27;45461;-89
2024/01/24 10:44:16;;;;;;;;;0.00;0.00;;;;;15.61;100.00;102796.63;5062221;27;45287;-88
2024/01/24 10:46:49;;;;;;;;;0.00;0.00;;;;;15.71;100.00;102787.69;5100146;27;45459;-88
2024/01/24 10:49:15;;;;;;;;;0.00;0.00;;;;;15.86;100.00;102794.44;5081042;27;55037;-88
2024/01/24 10:51:42;;;;;;;;;0.00;0.00;;;;;15.90;100.00;102814.53;5080759;27;45354;-91
2024/01/24 10:54:09;;;;;;;;;0.00;0.00;;;;;15.83;100.00;102816.38;5080538;27;45425;-87
2024/01/24 10:56:38;;;;;;;;;0.00;0.00;;;;;15.93;100.00;102797.84;5058150;27;45555;-86
2024/01/24 10:59:03;;;;;;;;;0.00;0.00;;;;;16.05;100.00;102808.97;5059417;27;48171;-87
2024/01/24 11:01:29;;;;;;;;;0.00;0.00;;;;;16.28;100.00;102791.03;5091621;27;45522;-87
2024/01/24 11:03:55;;;;;;;;;0.00;0.00;;;;;16.34;100.00;102780.41;5062241;27;63952;-86
2024/01/24 11:06:22;;;;;;;;;0.00;0.00;;;;;16.61;100.00;102763.19;5098486;27;45459;-87
2024/01/24 11:09:03;;;;;;;;;0.00;0.00;;;;;16.86;100.00;102775.81;5079008;27;46793;-88
2024/01/24 11:11:31;;;;;;;;;0.00;0.00;;;;;17.03;100.00;102774.53;5061244;27;45381;-87
2024/01/24 11:14:01;;;;;;;;;0.00;0.00;;;;;17.30;100.00;102758.94;5084165;27;45727;-87
2024/01/24 11:16:30;;;;;;;;;0.00;0.00;;;;;17.69;100.00;102760.59;5078481;27;45565;-89